Time;durP1;ratioP1;P1;durP2;ratioP2;P2;SDS_P1;SDS_P2;PMS_P1;PMS_P2;Temp;Humidity;BMP_temperature;BMP_pressure;BME280_temperature;BME280_humidity;BME280_pressure;Samples;Min_cycle;Max_cycle;Signal;HPM_P1;HPM_P2
2021/12/03 00:02:44;;;;;;;20.20;10.50;;;;;0.80;100391.00;;;;5055063;28;20305;-77
2021/12/03 00:05:30;;;;;;;20.00;9.40;;;;;0.90;100390.00;;;;5043249;28;20231;-76
2021/12/03 00:08:18;;;;;;;15.33;9.70;;;;;0.70;100386.00;;;;5038011;28;20225;-76
2021/12/03 00:11:05;;;;;;;15.33;9.47;;;;;0.70;100382.00;;;;5035592;28;20331;-77
2021/12/03 00:13:51;;;;;;;18.47;10.17;;;;;0.70;100385.00;;;;5034034;28;20232;-77
2021/12/03 00:16:38;;;;;;;15.03;9.23;;;;;0.70;100395.00;;;;5039532;28;20374;-75
2021/12/03 00:19:25;;;;;;;17.50;9.93;;;;;0.70;100396.00;;;;5038202;28;20237;-76
2021/12/03 00:22:11;;;;;;;17.37;9.53;;;;;0.70;100386.00;;;;5037396;28;20743;-77
2021/12/03 00:24:58;;;;;;;17.57;9.80;;;;;0.70;100391.00;;;;5037949;28;20266;-75
2021/12/03 00:27:44;;;;;;;20.27;11.43;;;;;0.70;100392.00;;;;5031554;28;20646;-76
2021/12/03 00:30:31;;;;;;;16.77;10.43;;;;;0.70;100392.00;;;;5041118;28;20371;-76
2021/12/03 00:33:18;;;;;;;18.03;10.63;;;;;0.60;100392.00;;;;5032888;28;20229;-76
2021/12/03 00:36:08;;;;;;;20.33;10.83;;;;;0.60;100393.00;;;;5055317;28;20248;-77
2021/12/03 00:38:58;;;;;;;19.90;11.73;;;;;0.70;100396.00;;;;5059558;28;21759;-77
2021/12/03 00:41:48;;;;;;;27.40;13.23;;;;;0.70;100397.00;;;;5052046;28;20281;-76
2021/12/03 00:44:34;;;;;;;26.13;13.40;;;;;0.80;100403.00;;;;5061878;28;20734;-77
2021/12/03 00:47:21;;;;;;;32.87;15.20;;;;;0.70;100392.00;;;;5055583;28;20231;-75
2021/12/03 00:50:09;;;;;;;33.17;14.30;;;;;0.70;100396.00;;;;5063749;28;20859;-77
2021/12/03 00:52:58;;;;;;;33.23;14.20;;;;;0.70;100394.00;;;;5059626;28;20281;-77
2021/12/03 00:55:44;;;;;;;34.90;15.43;;;;;0.70;100346.00;;;;5062301;28;20302;-76
2021/12/03 00:58:30;;;;;;;44.10;17.23;;;;;0.70;100406.00;;;;5066018;28;20239;-76
2021/12/03 01:01:18;;;;;;;36.90;15.87;;;;;0.80;100403.00;;;;5064417;28;20988;-77
2021/12/03 01:04:05;;;;;;;35.73;15.67;;;;;0.80;100411.00;;;;5060751;28;20249;-76
2021/12/03 01:06:52;;;;;;;38.77;15.13;;;;;0.80;100410.00;;;;5059601;28;20370;-76
2021/12/03 01:09:40;;;;;;;38.80;16.33;;;;;0.80;100417.00;;;;5060014;28;20238;-76
2021/12/03 01:12:26;;;;;;;41.10;16.70;;;;;0.80;100426.00;;;;5065696;28;20235;-76
2021/12/03 01:15:16;;;;;;;33.93;15.67;;;;;0.80;100426.00;;;;5066008;28;20291;-77
2021/12/03 01:18:03;;;;;;;33.47;14.93;;;;;0.70;100405.00;;;;5060382;28;20832;-77
2021/12/03 01:20:50;;;;;;;42.40;15.93;;;;;0.70;100427.00;;;;5059240;28;20302;-76
2021/12/03 01:23:37;;;;;;;36.10;16.00;;;;;0.70;100433.00;;;;5058981;28;20235;-76
2021/12/03 01:26:25;;;;;;;32.57;15.23;;;;;0.70;100408.00;;;;5055951;28;20230;-76
2021/12/03 01:29:11;;;;;;;39.03;15.67;;;;;0.60;100435.00;;;;5066136;28;20243;-77
2021/12/03 01:31:57;;;;;;;36.27;15.27;;;;;0.60;100438.00;;;;5064823;28;20236;-76
2021/12/03 01:34:44;;;;;;;28.17;14.37;;;;;0.70;100439.00;;;;5057616;28;20240;-75
2021/12/03 01:37:30;;;;;;;26.87;12.83;;;;;0.60;100421.00;;;;5065659;28;20227;-75
2021/12/03 01:40:23;;;;;;;30.13;13.83;;;;;0.80;100429.00;;;;5061234;28;20644;-75
2021/12/03 01:43:14;;;;;;;25.90;14.10;;;;;0.70;100437.00;;;;5060966;28;20227;-75
2021/12/03 01:46:07;;;;;;;22.40;14.00;;;;;0.80;100439.00;;;;5064132;28;20362;-76
2021/12/03 01:48:53;;;;;;;25.43;14.03;;;;;0.80;100440.00;;;;5040002;28;20260;-74
2021/12/03 01:51:40;;;;;;;25.27;13.23;;;;;0.80;100447.00;;;;5046014;28;20298;-76
2021/12/03 01:54:26;;;;;;;25.60;14.40;;;;;0.90;100444.00;;;;5063803;28;20327;-76
2021/12/03 01:57:13;;;;;;;22.63;12.03;;;;;0.90;100450.00;;;;5059610;28;20726;-75
2021/12/03 02:00:01;;;;;;;21.83;12.63;;;;;0.90;100447.00;;;;5059769;28;20313;-76
2021/12/03 02:02:48;;;;;;;22.37;13.77;;;;;0.90;100435.00;;;;5062784;28;20289;-75
2021/12/03 02:05:35;;;;;;;26.33;13.87;;;;;0.90;100441.00;;;;5066186;28;20310;-77
2021/12/03 02:08:22;;;;;;;25.67;13.57;;;;;0.90;100426.00;;;;5065935;28;20240;-76
2021/12/03 02:11:11;;;;;;;23.63;15.00;;;;;1.00;100433.00;;;;5062118;28;20359;-76
2021/12/03 02:13:57;;;;;;;31.97;17.53;;;;;1.00;100428.00;;;;5062489;28;20352;-76
2021/12/03 02:16:45;;;;;;;31.57;17.63;;;;;1.10;100417.00;;;;5064946;28;20232;-75
2021/12/03 02:19:33;;;;;;;28.40;16.87;;;;;1.10;100421.00;;;;5064856;28;20232;-74
2021/12/03 02:22:21;;;;;;;34.47;18.17;;;;;1.10;100430.00;;;;5063045;28;20247;-76
2021/12/03 02:25:11;;;;;;;26.70;16.57;;;;;1.10;100426.00;;;;5065001;28;20235;-76
2021/12/03 02:27:59;;;;;;;29.37;15.60;;;;;1.10;100425.00;;;;5052827;28;20240;-75
2021/12/03 02:30:47;;;;;;;30.77;16.00;;;;;1.10;100426.00;;;;5043320;28;20227;-75
2021/12/03 02:33:35;;;;;;;33.63;17.67;;;;;1.10;100428.00;;;;5046756;28;20233;-76
2021/12/03 02:36:22;;;;;;;32.80;16.27;;;;;1.10;100428.00;;;;5065397;28;20243;-76
2021/12/03 02:39:09;;;;;;;32.37;17.93;;;;;1.20;100431.00;;;;5058460;28;20251;-75
2021/12/03 02:41:56;;;;;;;26.83;16.27;;;;;1.10;100421.00;;;;5057914;28;20243;-75
2021/12/03 02:44:44;;;;;;;29.97;17.47;;;;;1.20;100423.00;;;;5055585;28;20246;-76
2021/12/03 02:47:31;;;;;;;34.20;17.97;;;;;1.20;100420.00;;;;5054480;28;20236;-77
2021/12/03 02:50:18;;;;;;;40.30;21.03;;;;;1.30;100426.00;;;;5055403;28;20279;-76
2021/12/03 02:53:05;;;;;;;31.63;18.30;;;;;1.20;100418.00;;;;5064646;28;20711;-77
2021/12/03 02:55:53;;;;;;;36.63;21.03;;;;;1.20;100408.00;;;;5055160;28;20239;-76
2021/12/03 02:58:40;;;;;;;34.97;19.60;;;;;1.20;100407.00;;;;5064251;28;20247;-77
2021/12/03 03:01:26;;;;;;;40.93;20.47;;;;;1.20;100409.00;;;;5065589;28;20232;-76
2021/12/03 03:04:13;;;;;;;36.53;20.17;;;;;1.30;100421.00;;;;5068324;28;20232;-76
2021/12/03 03:07:00;;;;;;;36.30;21.00;;;;;1.20;100436.00;;;;5062362;28;20231;-78
2021/12/03 03:09:46;;;;;;;37.23;20.57;;;;;1.40;100445.00;;;;5060554;28;20226;-76
2021/12/03 03:12:34;;;;;;;34.90;19.53;;;;;1.30;100441.00;;;;5050597;28;20299;-77
2021/12/03 03:15:20;;;;;;;35.93;19.97;;;;;1.40;100450.00;;;;5056796;28;20256;-78
2021/12/03 03:18:15;;;;;;;33.73;20.50;;;;;1.30;100441.00;;;;5054829;28;20362;-76
2021/12/03 03:21:03;;;;;;;42.30;21.20;;;;;1.30;100414.00;;;;5061927;28;20240;-77
2021/12/03 03:23:49;;;;;;;42.53;23.03;;;;;1.40;100438.00;;;;5060431;28;20248;-76
2021/12/03 03:26:36;;;;;;;52.80;25.37;;;;;1.60;100442.00;;;;5067414;28;20359;-76
2021/12/03 03:29:24;;;;;;;54.47;25.80;;;;;1.60;100442.00;;;;5059770;28;20271;-75
2021/12/03 03:32:11;;;;;;;57.33;26.70;;;;;1.60;100438.00;;;;5067160;28;20240;-75
2021/12/03 03:34:57;;;;;;;60.60;26.57;;;;;1.60;100427.00;;;;5062582;28;20231;-78
2021/12/03 03:37:43;;;;;;;58.47;26.10;;;;;1.80;100441.00;;;;5067696;28;20232;-77
2021/12/03 03:40:30;;;;;;;64.67;27.27;;;;;1.60;100430.00;;;;5061394;28;20239;-76
2021/12/03 03:43:17;;;;;;;64.23;26.20;;;;;1.70;100408.00;;;;5067931;28;20274;-76
2021/12/03 03:46:05;;;;;;;69.10;26.53;;;;;1.60;100427.00;;;;5065418;28;20239;-76
2021/12/03 03:48:51;;;;;;;64.13;25.70;;;;;1.60;100426.00;;;;5060820;28;20235;-76
2021/12/03 03:51:38;;;;;;;61.30;25.77;;;;;1.60;100426.00;;;;5066338;28;20705;-77
2021/12/03 03:54:24;;;;;;;63.33;25.13;;;;;1.60;100426.00;;;;5066909;28;20599;-76
2021/12/03 03:57:11;;;;;;;60.87;24.47;;;;;1.60;100418.00;;;;5067828;28;20255;-75
2021/12/03 03:59:57;;;;;;;56.17;23.63;;;;;1.60;100412.00;;;;5050011;28;20795;-75
2021/12/03 04:02:46;;;;;;;55.57;24.87;;;;;1.60;100382.00;;;;5042211;28;20226;-75
2021/12/03 04:05:33;;;;;;;68.00;23.87;;;;;1.60;100388.00;;;;5049431;28;20348;-75
2021/12/03 04:08:19;;;;;;;69.93;24.97;;;;;1.60;100398.00;;;;5060681;28;20601;-76
2021/12/03 04:11:06;;;;;;;75.87;25.73;;;;;1.60;100363.00;;;;5055380;28;20319;-75
2021/12/03 04:13:53;;;;;;;58.03;22.03;;;;;1.60;100394.00;;;;5051708;28;20247;-75
2021/12/03 04:16:39;;;;;;;56.53;20.93;;;;;1.80;100399.00;;;;5048887;28;20232;-75
2021/12/03 04:19:27;;;;;;;59.80;22.67;;;;;1.70;100370.00;;;;5059872;28;20994;-77
2021/12/03 04:22:15;;;;;;;55.93;21.50;;;;;1.70;100380.00;;;;5049150;28;20240;-73
2021/12/03 04:25:05;;;;;;;66.30;24.20;;;;;1.80;100382.00;;;;5049561;28;20239;-74
2021/12/03 04:27:52;;;;;;;57.43;22.87;;;;;1.80;100372.00;;;;5055670;28;20378;-75
2021/12/03 04:30:39;;;;;;;66.90;22.53;;;;;1.70;100367.00;;;;5052587;28;20241;-77
2021/12/03 04:33:25;;;;;;;66.40;23.13;;;;;1.80;100380.00;;;;5064207;28;20232;-76
2021/12/03 04:36:13;;;;;;;68.73;23.07;;;;;1.80;100386.00;;;;5061773;28;20290;-76
2021/12/03 04:39:00;;;;;;;62.13;24.23;;;;;1.70;100380.00;;;;5060737;28;20231;-76
2021/12/03 04:41:46;;;;;;;68.97;24.80;;;;;1.80;100377.00;;;;5065556;28;20239;-76
2021/12/03 04:44:34;;;;;;;61.33;24.87;;;;;1.80;100377.00;;;;5064929;28;20227;-75
2021/12/03 04:47:20;;;;;;;73.47;25.60;;;;;1.80;100364.00;;;;5066243;28;20236;-76
2021/12/03 04:50:10;;;;;;;68.67;25.50;;;;;1.80;100319.00;;;;5062718;28;20342;-76
2021/12/03 04:52:58;;;;;;;68.40;23.27;;;;;1.80;100345.00;;;;5058929;28;20278;-76
2021/12/03 04:55:44;;;;;;;64.90;24.23;;;;;1.90;100362.00;;;;5058035;28;20636;-76
2021/12/03 04:58:31;;;;;;;61.27;22.50;;;;;1.90;100356.00;;;;5058315;28;20731;-74
2021/12/03 05:01:17;;;;;;;55.47;21.20;;;;;1.90;100353.00;;;;5064068;28;20804;-74
2021/12/03 05:04:04;;;;;;;68.80;23.60;;;;;1.60;100367.00;;;;5060657;28;20240;-76
2021/12/03 05:06:56;;;;;;;66.07;22.37;;;;;1.90;100366.00;;;;5046281;28;20240;-75
2021/12/03 05:09:44;;;;;;;62.13;22.37;;;;;1.90;100373.00;;;;5075253;28;20231;-76
2021/12/03 05:12:30;;;;;;;59.40;22.10;;;;;2.00;100368.00;;;;5081723;28;20393;-75
2021/12/03 05:15:18;;;;;;;68.03;22.00;;;;;1.90;100373.00;;;;5074099;28;20235;-75
2021/12/03 05:18:06;;;;;;;70.80;21.77;;;;;2.00;100369.00;;;;5065777;28;20297;-76
2021/12/03 05:20:54;;;;;;;61.90;20.07;;;;;2.00;100378.00;;;;5056405;28;20235;-76
2021/12/03 05:23:40;;;;;;;66.13;22.13;;;;;2.00;100377.00;;;;5059595;28;20223;-75
2021/12/03 05:26:28;;;;;;;60.10;21.87;;;;;2.00;100376.00;;;;5064413;28;20242;-75
2021/12/03 05:29:15;;;;;;;59.97;20.93;;;;;2.00;100370.00;;;;5057396;28;20289;-75
2021/12/03 05:32:01;;;;;;;65.17;22.23;;;;;2.00;100373.00;;;;5060210;28;20247;-75
2021/12/03 05:34:48;;;;;;;61.30;21.43;;;;;2.10;100356.00;;;;5060093;28;20591;-74
2021/12/03 05:37:34;;;;;;;67.47;22.73;;;;;2.00;100338.00;;;;5067354;28;20236;-75
2021/12/03 05:40:21;;;;;;;63.93;21.13;;;;;2.00;100371.00;;;;5077271;28;20699;-76
2021/12/03 05:43:08;;;;;;;61.63;21.23;;;;;2.00;100373.00;;;;5068843;28;20880;-75
2021/12/03 05:45:55;;;;;;;69.33;22.50;;;;;2.00;100376.00;;;;5067382;28;20236;-76
2021/12/03 05:48:41;;;;;;;61.27;20.97;;;;;2.10;100368.00;;;;5077196;28;20234;-75
2021/12/03 05:51:29;;;;;;;56.60;19.47;;;;;2.00;100376.00;;;;5054835;28;20232;-76
2021/12/03 05:54:16;;;;;;;63.00;19.33;;;;;2.00;100381.00;;;;5057502;28;20243;-77
2021/12/03 05:57:02;;;;;;;55.50;20.10;;;;;2.10;100381.00;;;;5071105;28;20231;-76
2021/12/03 05:59:49;;;;;;;58.77;20.07;;;;;2.00;100398.00;;;;5070524;28;20254;-76
2021/12/03 06:02:36;;;;;;;59.57;20.60;;;;;2.10;100386.00;;;;5079842;28;20227;-76
2021/12/03 06:05:23;;;;;;;62.40;20.87;;;;;2.20;100384.00;;;;5071544;28;20231;-76
2021/12/03 06:08:10;;;;;;;56.17;19.53;;;;;2.20;100367.00;;;;5075602;28;20239;-76
2021/12/03 06:10:57;;;;;;;61.53;21.33;;;;;2.10;100371.00;;;;5063873;28;20239;-76
2021/12/03 06:13:43;;;;;;;60.77;22.07;;;;;2.20;100366.00;;;;5066997;28;20227;-76
2021/12/03 06:16:31;;;;;;;61.97;21.87;;;;;2.20;100375.00;;;;5075388;28;20273;-76
2021/12/03 06:19:17;;;;;;;55.10;20.33;;;;;2.30;100368.00;;;;5078628;28;20351;-76
2021/12/03 06:22:04;;;;;;;62.63;21.13;;;;;2.20;100363.00;;;;5042589;28;20236;-76
2021/12/03 06:24:50;;;;;;;57.27;21.20;;;;;2.10;100361.00;;;;5039021;28;20240;-76
2021/12/03 06:27:38;;;;;;;60.00;20.53;;;;;2.20;100361.00;;;;5045890;28;20228;-76
2021/12/03 06:30:25;;;;;;;54.57;20.33;;;;;2.30;100362.00;;;;5049326;28;20235;-76
2021/12/03 06:33:12;;;;;;;55.00;21.17;;;;;2.30;100372.00;;;;5057747;28;20238;-76
2021/12/03 06:35:59;;;;;;;56.77;21.90;;;;;2.40;100374.00;;;;5053880;28;20391;-76
2021/12/03 06:38:45;;;;;;;51.97;18.33;;;;;2.20;100373.00;;;;5046911;28;20306;-76
2021/12/03 06:41:31;;;;;;;61.07;21.17;;;;;2.20;100377.00;;;;5051186;28;20236;-74
2021/12/03 06:44:18;;;;;;;49.50;20.30;;;;;2.30;100369.00;;;;5055019;28;20279;-75
2021/12/03 06:47:04;;;;;;;55.20;19.40;;;;;2.20;100366.00;;;;5051671;28;20227;-76
2021/12/03 06:49:52;;;;;;;52.63;19.53;;;;;2.20;100377.00;;;;5057725;28;20238;-77
2021/12/03 06:52:41;;;;;;;59.10;19.83;;;;;2.20;100364.00;;;;5054031;28;20235;-77
2021/12/03 06:55:27;;;;;;;42.03;18.43;;;;;2.30;100368.00;;;;5056808;28;20298;-76
2021/12/03 06:58:15;;;;;;;52.67;20.10;;;;;2.30;100369.00;;;;5046584;28;20237;-77
2021/12/03 07:01:02;;;;;;;49.27;18.97;;;;;2.30;100357.00;;;;5052705;28;20244;-77
2021/12/03 07:03:48;;;;;;;46.17;17.97;;;;;2.30;100354.00;;;;5047145;28;20232;-77
2021/12/03 07:06:36;;;;;;;53.97;20.90;;;;;2.20;100365.00;;;;5055797;28;20373;-77
2021/12/03 07:09:22;;;;;;;59.13;20.10;;;;;2.30;100364.00;;;;5053321;28;20224;-76
2021/12/03 07:12:10;;;;;;;47.83;18.53;;;;;2.30;100363.00;;;;5056285;28;20232;-77
2021/12/03 07:14:57;;;;;;;53.97;19.23;;;;;2.30;100346.00;;;;5050385;28;20246;-77
2021/12/03 07:17:43;;;;;;;47.00;18.70;;;;;2.30;100364.00;;;;5050331;28;20227;-76
2021/12/03 07:20:30;;;;;;;53.33;18.17;;;;;2.40;100369.00;;;;5049923;28;20228;-75
2021/12/03 07:23:18;;;;;;;48.83;19.60;;;;;2.40;100362.00;;;;5050756;28;20241;-76
2021/12/03 07:26:04;;;;;;;54.20;19.73;;;;;2.40;100363.00;;;;5061697;28;20231;-76
2021/12/03 07:28:52;;;;;;;51.10;19.00;;;;;2.50;100368.00;;;;5060824;28;20224;-76
2021/12/03 07:31:38;;;;;;;52.10;18.60;;;;;2.50;100367.00;;;;5058914;28;20231;-75
2021/12/03 07:34:24;;;;;;;50.83;19.80;;;;;2.50;100370.00;;;;5057767;28;20227;-76
2021/12/03 07:37:11;;;;;;;63.23;21.43;;;;;2.60;100361.00;;;;5061858;28;20270;-77
2021/12/03 07:40:00;;;;;;;53.33;19.10;;;;;2.50;100348.00;;;;5062163;28;20232;-74
2021/12/03 07:42:46;;;;;;;55.10;19.90;;;;;2.50;100366.00;;;;5067361;28;20318;-73
2021/12/03 07:45:33;;;;;;;53.00;18.57;;;;;2.60;100344.00;;;;5062664;28;20367;-73
2021/12/03 07:48:21;;;;;;;58.13;19.50;;;;;2.60;100355.00;;;;5069975;28;20232;-73
2021/12/03 07:51:07;;;;;;;49.70;19.00;;;;;2.60;100351.00;;;;5068427;28;20243;-73
2021/12/03 07:53:53;;;;;;;49.53;17.90;;;;;2.70;100344.00;;;;5067189;28;20236;-73
2021/12/03 07:56:41;;;;;;;55.10;20.40;;;;;2.60;100350.00;;;;5065111;28;20251;-73
2021/12/03 07:59:27;;;;;;;55.30;18.80;;;;;2.70;100343.00;;;;5058310;28;20350;-73
2021/12/03 08:02:14;;;;;;;57.97;18.57;;;;;2.80;100317.00;;;;5067229;28;20235;-72
2021/12/03 08:05:01;;;;;;;60.70;20.33;;;;;2.80;100353.00;;;;5061538;28;20239;-73
2021/12/03 08:07:49;;;;;;;59.57;21.10;;;;;2.90;100313.00;;;;5066266;28;20223;-72
2021/12/03 08:10:35;;;;;;;53.23;19.97;;;;;3.00;100341.00;;;;5066540;28;20298;-73
2021/12/03 08:13:23;;;;;;;63.40;20.83;;;;;3.00;100341.00;;;;5067520;28;20351;-75
2021/12/03 08:16:09;;;;;;;56.97;20.33;;;;;2.80;100352.00;;;;5065393;28;20927;-74
2021/12/03 08:18:56;;;;;;;59.47;22.17;;;;;3.00;100352.00;;;;5065963;28;20232;-73
2021/12/03 08:21:42;;;;;;;51.57;19.80;;;;;3.10;100359.00;;;;5066611;28;20227;-73
2021/12/03 08:24:28;;;;;;;63.07;20.83;;;;;3.10;100365.00;;;;5067403;28;20701;-68
2021/12/03 08:27:15;;;;;;;48.20;20.17;;;;;3.10;100354.00;;;;5066217;28;20321;-69
2021/12/03 08:30:05;;;;;;;53.57;20.17;;;;;3.20;100359.00;;;;5061313;28;20904;-69
2021/12/03 08:32:51;;;;;;;49.47;19.53;;;;;3.30;100357.00;;;;5065752;28;20247;-70
2021/12/03 08:35:38;;;;;;;56.37;21.53;;;;;3.40;100345.00;;;;5066347;28;20341;-74
2021/12/03 08:38:24;;;;;;;51.23;20.50;;;;;3.50;100352.00;;;;5060125;28;20227;-73
2021/12/03 08:41:27;;;;;;;49.43;19.57;;;;;3.40;100352.00;;;;5058418;28;20236;-73
2021/12/03 08:44:13;;;;;;;46.97;19.97;;;;;3.40;100357.00;;;;5066641;28;20593;-71
2021/12/03 08:47:03;;;;;;;43.67;18.00;;;;;3.40;100350.00;;;;5060619;28;20303;-73
2021/12/03 08:49:51;;;;;;;43.73;18.27;;;;;3.40;100349.00;;;;5059494;28;20238;-74
2021/12/03 08:52:53;;;;;;;36.17;15.80;;;;;3.50;100335.00;;;;5061533;28;20574;-72
2021/12/03 08:55:40;;;;;;;39.50;17.27;;;;;3.50;100324.00;;;;5058140;28;20227;-73
2021/12/03 08:58:27;;;;;;;41.30;15.70;;;;;3.60;100338.00;;;;5064441;28;20793;-76
2021/12/03 09:01:14;;;;;;;37.73;15.47;;;;;3.50;100339.00;;;;5066070;28;20238;-75
2021/12/03 09:04:02;;;;;;;31.37;13.47;;;;;3.60;100344.00;;;;5060282;28;20246;-76
2021/12/03 09:06:49;;;;;;;22.43;11.80;;;;;3.50;100325.00;;;;5058851;28;20299;-77
2021/12/03 09:09:35;;;;;;;31.57;12.57;;;;;3.60;100330.00;;;;5064799;28;20236;-75
2021/12/03 09:12:21;;;;;;;27.57;11.87;;;;;3.60;100342.00;;;;5056355;28;20228;-75
2021/12/03 09:15:11;;;;;;;26.07;11.70;;;;;3.60;100323.00;;;;5064759;28;20290;-75
2021/12/03 09:21:22;;;;;;;26.27;9.60;;;;;3.60;100326.00;;;;5062355;28;20227;-75
2021/12/03 09:24:12;;;;;;;21.53;9.40;;;;;3.60;100317.00;;;;5066769;28;20235;-74
2021/12/03 09:26:58;;;;;;;24.97;8.77;;;;;3.70;100331.00;;;;5066224;28;20225;-75
2021/12/03 09:29:45;;;;;;;19.63;8.83;;;;;3.70;100315.00;;;;5052480;28;20362;-75
2021/12/03 09:32:33;;;;;;;28.90;9.57;;;;;3.70;100320.00;;;;5065419;28;20327;-75
2021/12/03 09:35:19;;;;;;;22.80;9.30;;;;;3.70;100308.00;;;;5061736;28;20253;-76
2021/12/03 09:38:07;;;;;;;28.00;9.73;;;;;3.80;100307.00;;;;5060822;28;20252;-75
2021/12/03 09:40:53;;;;;;;23.43;9.10;;;;;3.90;100294.00;;;;5058985;28;20738;-75
2021/12/03 09:43:44;;;;;;;24.87;9.43;;;;;3.90;100298.00;;;;5065771;28;20242;-75
2021/12/03 09:46:30;;;;;;;20.93;8.00;;;;;3.80;100280.00;;;;5057054;28;20348;-76
2021/12/03 09:52:27;;;;;;;16.63;7.93;;;;;3.90;100291.00;;;;5061999;28;20251;-76
2021/12/03 09:55:15;;;;;;;20.73;7.33;;;;;4.00;100289.00;;;;5062965;28;20247;-74
2021/12/03 09:58:10;;;;;;;20.77;7.73;;;;;4.00;100292.00;;;;5061171;28;20225;-76
2021/12/03 10:01:00;;;;;;;19.10;7.37;;;;;4.10;100289.00;;;;5061796;28;20357;-76
2021/12/03 10:04:06;;;;;;;21.60;6.73;;;;;4.00;100298.00;;;;5052361;28;20230;-76
2021/12/03 10:10:25;;;;;;;19.73;6.47;;;;;4.20;100304.00;;;;5069977;28;20231;-75
2021/12/03 10:13:16;;;;;;;15.37;6.07;;;;;4.20;100299.00;;;;5054912;28;20598;-73
2021/12/03 10:16:12;;;;;;;16.20;6.63;;;;;4.30;100308.00;;;;5045495;28;20311;-73
2021/12/03 10:19:01;;;;;;;15.53;6.27;;;;;4.30;100304.00;;;;5059006;28;20240;-73
2021/12/03 10:22:08;;;;;;;18.67;5.80;;;;;4.40;100293.00;;;;5053439;28;20279;-71
2021/12/03 10:28:07;;;;;;;21.07;5.93;;;;;4.40;100297.00;;;;5041347;27;20621;-72
2021/12/03 10:34:23;;;;;;;16.90;6.60;;;;;4.30;100270.00;;;;5025446;28;20233;-74
2021/12/03 10:37:37;;;;;;;13.37;6.13;;;;;4.30;100256.00;;;;5010261;28;20679;-73
2021/12/03 10:40:45;;;;;;;16.00;6.13;;;;;4.40;100252.00;;;;5008059;28;20721;-72
2021/12/03 10:53:08;;;;;;;15.83;5.73;;;;;4.60;100234.00;;;;5016467;28;20356;-69
2021/12/03 11:30:28;;;;;;;14.90;5.57;;;;;5.00;100170.00;;;;5057097;28;20239;-75
2021/12/03 11:43:25;;;;;;;9.23;4.53;;;;;4.90;100156.00;;;;5060151;28;20361;-74
2021/12/03 12:40:50;;;;;;;10.23;4.50;;;;;4.80;100064.00;;;;5072950;27;20627;-71
2021/12/03 13:09:11;;;;;;;11.87;4.40;;;;;5.10;100004.00;;;;5066002;28;20237;-72
2021/12/03 14:09:12;;;;;;;9.27;3.43;;;;;5.40;99934.00;;;;5031738;28;20232;-72
2021/12/03 14:40:42;;;;;;;5.67;3.47;;;;;5.20;99901.00;;;;5059331;28;20259;-73
2021/12/03 14:43:44;;;;;;;9.17;4.00;;;;;5.10;99900.00;;;;5067414;28;20220;-73
2021/12/03 14:46:59;;;;;;;7.90;3.67;;;;;5.10;99939.00;;;;5056945;28;20230;-72
2021/12/03 14:50:28;;;;;;;8.77;3.53;;;;;5.10;99910.00;;;;5071136;28;20254;-72
2021/12/03 14:56:21;;;;;;;6.33;2.83;;;;;5.00;99924.00;;;;5063182;28;20232;-72
2021/12/03 14:59:12;;;;;;;6.50;3.50;;;;;4.90;99928.00;;;;5066845;28;20286;-74
2021/12/03 15:02:10;;;;;;;5.80;3.20;;;;;4.90;99919.00;;;;5033030;28;20232;-73
2021/12/03 15:05:12;;;;;;;7.83;3.60;;;;;4.90;99906.00;;;;5026593;28;20277;-73
2021/12/03 15:08:01;;;;;;;9.57;3.90;;;;;4.90;99898.00;;;;5034362;28;20246;-74
2021/12/03 15:11:12;;;;;;;5.97;3.30;;;;;4.80;99896.00;;;;5025875;28;20229;-74
2021/12/03 15:26:32;;;;;;;9.93;4.43;;;;;4.70;99908.00;;;;5048420;28;20231;-74
2021/12/03 15:32:30;;;;;;;7.00;3.93;;;;;4.50;99910.00;;;;5029014;28;20283;-75
2021/12/03 15:35:20;;;;;;;6.00;3.87;;;;;4.60;99904.00;;;;5051127;28;20263;-75
2021/12/03 15:38:29;;;;;;;7.77;4.60;;;;;4.60;99908.00;;;;5037624;28;20231;-75
2021/12/03 16:08:51;;;;;;;8.90;4.70;;;;;4.50;99908.00;;;;5048237;28;20645;-73
2021/12/03 16:11:42;;;;;;;12.57;4.97;;;;;4.40;99912.00;;;;5040410;28;20227;-74
2021/12/03 16:14:59;;;;;;;11.83;5.37;;;;;4.40;99899.00;;;;5043472;28;20228;-74
2021/12/03 16:46:00;;;;;;;10.53;5.30;;;;;4.30;99868.00;;;;5025516;28;20236;-70
2021/12/03 16:51:53;;;;;;;8.53;5.40;;;;;4.30;99857.00;;;;5037897;28;20398;-72
2021/12/03 16:55:01;;;;;;;17.33;6.43;;;;;4.30;99854.00;;;;5040639;28;20252;-72
2021/12/03 16:57:51;;;;;;;10.60;5.73;;;;;4.30;99850.00;;;;5033710;28;20308;-72
2021/12/03 17:00:41;;;;;;;10.30;5.83;;;;;4.20;99850.00;;;;5059029;28;20228;-72
2021/12/03 17:03:34;;;;;;;9.73;5.73;;;;;4.30;99851.00;;;;5040683;28;20311;-72
2021/12/03 17:12:47;;;;;;;10.77;6.10;;;;;4.20;99838.00;;;;5047643;28;20623;-73
2021/12/03 17:47:00;;;;;;;11.27;6.40;;;;;4.20;99836.00;;;;5034509;28;20244;-71
2021/12/03 17:49:50;;;;;;;11.37;6.60;;;;;4.30;99839.00;;;;5043824;28;20243;-70
2021/12/03 17:56:05;;;;;;;16.37;6.87;;;;;4.30;99828.00;;;;5064224;28;20223;-72
2021/12/03 17:58:54;;;;;;;10.40;6.17;;;;;4.30;99835.00;;;;5032285;28;20274;-70
2021/12/03 18:01:48;;;;;;;10.90;6.33;;;;;4.30;99825.00;;;;5033862;28;20229;-72
2021/12/03 18:04:42;;;;;;;10.00;6.43;;;;;4.30;99826.00;;;;5033457;28;20558;-69
2021/12/03 18:10:42;;;;;;;13.63;6.90;;;;;4.30;99819.00;;;;5034293;28;20224;-72
2021/12/03 18:14:06;;;;;;;12.80;6.63;;;;;4.40;99801.00;;;;5048638;28;20232;-70
2021/12/03 18:44:47;;;;;;;12.17;7.30;;;;;4.30;99745.00;;;;5045760;28;20306;-71
2021/12/03 18:57:09;;;;;;;16.07;7.60;;;;;4.50;99740.00;;;;5002291;28;20277;-70
2021/12/03 18:59:59;;;;;;;13.70;7.53;;;;;4.40;99722.00;;;;5057774;28;20717;-72
2021/12/03 19:02:50;;;;;;;12.03;7.30;;;;;4.50;99717.00;;;;5033380;28;20594;-71
2021/12/03 19:05:43;;;;;;;12.13;6.90;;;;;4.50;99721.00;;;;5040166;28;20737;-70
2021/12/03 19:08:38;;;;;;;12.13;6.77;;;;;4.50;99718.00;;;;5044430;28;20237;-69
2021/12/03 19:11:27;;;;;;;11.63;6.87;;;;;4.50;99707.00;;;;5018409;28;20233;-71
2021/12/03 19:14:14;;;;;;;11.90;7.03;;;;;4.40;99704.00;;;;5042577;28;20232;-70
2021/12/03 19:17:01;;;;;;;11.87;7.50;;;;;4.40;99719.00;;;;5034133;28;20364;-70
2021/12/03 19:19:49;;;;;;;12.33;7.07;;;;;4.40;99714.00;;;;5046718;28;20233;-69
2021/12/03 19:22:35;;;;;;;12.33;7.53;;;;;4.50;99713.00;;;;5039168;28;20231;-70
2021/12/03 19:25:22;;;;;;;12.73;7.63;;;;;4.50;99712.00;;;;5024056;28;20796;-70
2021/12/03 19:28:08;;;;;;;11.27;7.00;;;;;4.50;99703.00;;;;5033334;28;20232;-70
2021/12/03 19:30:56;;;;;;;10.30;7.10;;;;;4.50;99714.00;;;;5050240;28;20232;-69
2021/12/03 19:33:44;;;;;;;11.43;7.40;;;;;4.50;99719.00;;;;5035509;28;20227;-69
2021/12/03 19:36:33;;;;;;;11.67;7.17;;;;;4.50;99718.00;;;;5046069;28;20327;-70
2021/12/03 19:39:23;;;;;;;10.67;7.13;;;;;4.60;99719.00;;;;5037213;28;20229;-70
2021/12/03 19:42:12;;;;;;;9.63;7.03;;;;;4.60;99712.00;;;;5052153;28;20235;-70
2021/12/03 19:45:02;;;;;;;12.30;7.13;;;;;4.50;99712.00;;;;5039818;28;20284;-69
2021/12/03 19:47:57;;;;;;;10.20;7.20;;;;;4.50;99708.00;;;;5022072;28;20288;-69
2021/12/03 19:50:47;;;;;;;10.03;6.27;;;;;4.50;99709.00;;;;5035260;28;20368;-69
2021/12/03 19:53:39;;;;;;;9.97;6.93;;;;;4.70;99697.00;;;;5028854;28;20232;-68
2021/12/03 19:56:27;;;;;;;10.63;6.73;;;;;4.70;99702.00;;;;5047891;28;20237;-69
2021/12/03 19:59:14;;;;;;;13.53;7.20;;;;;4.70;99693.00;;;;5033196;28;20298;-71
2021/12/03 20:02:01;;;;;;;12.70;7.47;;;;;4.70;99692.00;;;;5037719;28;20781;-72
2021/12/03 20:04:47;;;;;;;11.20;6.70;;;;;4.70;99699.00;;;;5034888;28;20258;-70
2021/12/03 20:07:35;;;;;;;12.30;7.13;;;;;4.70;99684.00;;;;5027948;28;20233;-69
2021/12/03 20:10:24;;;;;;;14.37;7.13;;;;;4.70;99688.00;;;;5030514;28;20231;-71
2021/12/03 20:13:11;;;;;;;9.57;6.40;;;;;4.60;99688.00;;;;5041849;28;20294;-72
2021/12/03 20:16:08;;;;;;;11.83;7.33;;;;;4.70;99677.00;;;;5036709;28;20268;-71
2021/12/03 20:18:58;;;;;;;11.17;7.57;;;;;4.70;99675.00;;;;5036180;28;20240;-71
2021/12/03 20:21:48;;;;;;;11.17;7.33;;;;;4.70;99684.00;;;;5025545;28;20237;-69
2021/12/03 20:24:52;;;;;;;12.97;7.60;;;;;4.60;99669.00;;;;5041210;28;20302;-69
2021/12/03 20:27:43;;;;;;;12.43;7.00;;;;;4.60;99674.00;;;;5049129;28;20699;-71
2021/12/03 20:30:38;;;;;;;11.17;7.47;;;;;4.60;99674.00;;;;5033897;28;20227;-70